createdAt,value
2019-04-07T00:01:32.299Z,15.35
2019-04-07T00:04:01.840Z,12.68
2019-04-07T00:06:31.657Z,13.03
2019-04-07T00:09:01.720Z,14.00
2019-04-07T00:11:31.381Z,15.53
2019-04-07T00:14:00.837Z,15.50
2019-04-07T00:16:30.898Z,13.30
2019-04-07T00:19:00.328Z,15.15
2019-04-07T00:21:30.177Z,13.98
2019-04-07T00:24:01.771Z,13.53
2019-04-07T00:26:31.172Z,16.12
2019-04-07T00:29:01.558Z,13.58
2019-04-07T00:31:31.137Z,13.85
2019-04-07T00:34:00.593Z,12.50
2019-04-07T00:36:30.026Z,15.00
2019-04-07T00:38:59.502Z,14.68
2019-04-07T00:41:28.953Z,13.75
2019-04-07T00:43:58.401Z,12.73
2019-04-07T00:46:27.970Z,13.50
2019-04-07T00:48:57.801Z,13.93
2019-04-07T00:51:27.642Z,14.03
2019-04-07T00:53:57.297Z,12.88
2019-04-07T00:56:26.973Z,13.75
2019-04-07T00:58:56.522Z,15.00
2019-04-07T01:01:26.126Z,11.90
2019-04-07T01:03:55.724Z,13.83
2019-04-07T01:06:26.154Z,11.38
2019-04-07T01:08:56.770Z,13.32
2019-04-07T01:11:26.703Z,13.08
2019-04-07T01:13:56.125Z,15.30
2019-04-07T01:16:25.555Z,11.05
2019-04-07T01:18:55.438Z,12.20
2019-04-07T01:21:25.014Z,13.50
2019-04-07T01:23:54.521Z,15.35
2019-04-07T01:26:23.940Z,14.70
2019-04-07T01:28:54.520Z,12.68
2019-04-07T01:31:25.107Z,12.78
2019-04-07T01:33:54.482Z,15.40
2019-04-07T01:36:23.939Z,14.73
2019-04-07T01:38:53.375Z,17.27
2019-04-07T01:41:27.689Z,11.45
2019-04-07T01:44:14.465Z,12.33
2019-04-07T01:46:59.335Z,11.93
2019-04-07T01:49:46.588Z,13.68
2019-04-07T01:52:28.470Z,12.50
2019-04-07T01:55:18.070Z,11.70
2019-04-07T01:58:07.846Z,11.93
2019-04-07T02:00:56.591Z,13.22
2019-04-07T02:03:51.241Z,10.60
2019-04-07T02:06:38.038Z,13.60
2019-04-07T02:09:32.456Z,11.38
2019-04-07T02:12:23.752Z,12.50
2019-04-07T02:15:07.372Z,9.00
2019-04-07T02:17:48.998Z,11.63
2019-04-07T02:21:10.537Z,10.85
2019-04-07T02:23:49.407Z,11.50
2019-04-07T02:26:55.631Z,11.20
2019-04-07T02:29:54.193Z,10.63
2019-04-07T02:32:54.668Z,13.75
2019-04-07T02:35:49.004Z,13.20
2019-04-07T02:38:46.571Z,11.40
2019-04-07T02:41:25.047Z,11.10
2019-04-07T02:44:18.008Z,12.13
2019-04-07T02:47:09.877Z,10.90
2019-04-07T02:50:16.184Z,12.03
2019-04-07T02:53:05.591Z,12.60
2019-04-07T02:56:00.443Z,11.97
2019-04-07T02:58:44.339Z,10.35
2019-04-07T03:01:35.480Z,10.40
2019-04-07T03:04:20.434Z,10.80
2019-04-07T03:07:08.810Z,12.00
2019-04-07T03:09:56.752Z,9.95
2019-04-07T03:12:51.195Z,10.50
2019-04-07T03:15:29.371Z,8.50
2019-04-07T03:18:24.107Z,10.10
2019-04-07T03:21:15.688Z,12.60
2019-04-07T03:24:15.800Z,9.60
2019-04-07T03:26:59.484Z,9.60
2019-04-07T03:29:53.838Z,9.18
2019-04-07T03:32:45.023Z,9.68
2019-04-07T03:35:26.486Z,9.33
2019-04-07T03:38:12.635Z,10.80
2019-04-07T03:40:49.837Z,9.28
2019-04-07T03:43:41.783Z,10.43
2019-04-07T03:46:43.127Z,10.43
2019-04-07T03:49:23.584Z,9.75
2019-04-07T03:52:10.205Z,9.58
2019-04-07T03:55:08.617Z,9.38
2019-04-07T03:57:55.580Z,9.48
2019-04-07T04:01:27.173Z,10.00
2019-04-07T04:04:06.185Z,10.55
2019-04-07T04:06:56.778Z,8.10
2019-04-07T04:09:40.886Z,9.30
2019-04-07T04:12:21.324Z,8.98
2019-04-07T04:15:03.657Z,9.45
2019-04-07T04:17:33.147Z,9.90
2019-04-07T04:20:02.586Z,10.38
2019-04-07T04:22:32.500Z,8.18
2019-04-07T04:25:02.810Z,8.53
2019-04-07T04:27:33.186Z,9.08
2019-04-07T04:30:03.085Z,10.78
2019-04-07T04:32:32.888Z,8.70
2019-04-07T04:35:03.171Z,7.92
2019-04-07T04:37:39.907Z,8.08
2019-04-07T04:40:05.111Z,8.78
2019-04-07T04:42:35.798Z,9.15
2019-04-07T04:45:06.290Z,7.62
2019-04-07T04:47:35.790Z,8.65
2019-04-07T04:50:07.843Z,9.53
2019-04-07T04:52:38.286Z,11.30
2019-04-07T04:55:07.772Z,10.70
2019-04-07T04:57:37.435Z,8.55
2019-04-07T05:00:07.419Z,6.87
2019-04-07T05:02:36.894Z,8.48
2019-04-07T05:05:09.233Z,9.25
2019-04-07T05:07:49.937Z,13.50
2019-04-07T05:10:10.241Z,9.68
2019-04-07T05:12:40.289Z,14.73
2019-04-07T05:15:09.793Z,11.50
2019-04-07T05:17:39.272Z,11.83
2019-04-07T05:20:10.943Z,8.15
2019-04-07T05:22:42.167Z,11.30
2019-04-07T05:25:12.059Z,10.18
2019-04-07T05:27:41.650Z,12.70
2019-04-07T05:30:11.272Z,7.47
2019-04-07T05:32:41.038Z,9.50
2019-04-07T05:35:11.140Z,8.65
2019-04-07T05:37:40.708Z,9.50
2019-04-07T05:40:10.171Z,9.70
2019-04-07T05:42:40.032Z,8.15
2019-04-07T05:45:10.127Z,10.95
2019-04-07T05:47:43.608Z,9.18
2019-04-07T05:50:11.122Z,8.38
2019-04-07T05:52:40.932Z,7.97
2019-04-07T05:55:10.961Z,9.18
2019-04-07T05:57:40.439Z,8.58
2019-04-07T06:00:13.639Z,10.70
2019-04-07T06:02:42.924Z,11.65
2019-04-07T06:05:12.411Z,11.12
2019-04-07T06:07:42.627Z,10.23
2019-04-07T06:10:13.337Z,15.78
2019-04-07T06:12:46.354Z,12.40
2019-04-07T06:15:17.725Z,12.40
2019-04-07T06:17:45.835Z,11.12
2019-04-07T06:20:16.993Z,13.10
2019-04-07T06:22:47.760Z,12.40
2019-04-07T06:25:18.768Z,13.08
2019-04-07T06:27:49.023Z,47.00
2019-04-07T06:30:19.510Z,31.05
2019-04-07T06:32:49.220Z,21.55
2019-04-07T06:35:19.257Z,28.32
2019-04-07T06:37:48.840Z,31.23
2019-04-07T06:40:20.674Z,41.95
2019-04-07T06:42:49.955Z,35.55
2019-04-07T06:45:23.421Z,36.70
2019-04-07T06:47:56.288Z,32.75
2019-04-07T06:50:50.223Z,32.63
2019-04-07T06:53:24.593Z,33.28
2019-04-07T06:56:09.055Z,37.90
2019-04-07T06:58:51.459Z,42.78
2019-04-07T07:01:51.131Z,36.00
2019-04-07T07:04:41.552Z,33.05
2019-04-07T07:07:35.737Z,34.40
2019-04-07T07:10:29.620Z,31.02
2019-04-07T07:13:26.505Z,35.70
2019-04-07T07:15:55.677Z,31.00
2019-04-07T07:18:43.923Z,32.75
2019-04-07T07:21:36.451Z,37.17
2019-04-07T07:24:03.397Z,33.08
2019-04-07T07:26:35.257Z,33.18
2019-04-07T07:29:06.422Z,36.00
2019-04-07T07:31:35.775Z,30.50
2019-04-07T07:34:05.403Z,30.52
2019-04-07T07:36:35.043Z,34.25
2019-04-07T07:39:10.221Z,27.22
2019-04-07T07:41:36.626Z,36.38
2019-04-07T07:44:08.453Z,38.25
2019-04-07T07:46:37.633Z,35.73
2019-04-07T07:49:07.146Z,39.33
2019-04-07T07:51:38.668Z,35.33
2019-04-07T07:54:07.817Z,41.95
2019-04-07T07:56:38.165Z,40.28
2019-04-07T07:59:08.822Z,38.58
2019-04-07T08:01:38.246Z,43.83
2019-04-07T08:04:07.679Z,40.43
2019-04-07T08:06:40.173Z,38.23
2019-04-07T08:09:13.823Z,42.15
2019-04-07T08:11:40.036Z,42.67
2019-04-07T08:14:09.991Z,42.93
2019-04-07T08:16:39.996Z,37.95
2019-04-07T08:19:10.286Z,40.28
2019-04-07T08:21:40.700Z,43.52
2019-04-07T08:24:11.912Z,43.85
2019-04-07T08:26:42.645Z,47.75
2019-04-07T08:29:13.006Z,45.28
2019-04-07T08:31:43.799Z,45.33
2019-04-07T08:34:13.296Z,45.60
2019-04-07T08:36:44.475Z,46.63
2019-04-07T08:39:23.933Z,47.90
2019-04-07T08:41:45.822Z,44.73
2019-04-07T08:44:16.090Z,44.63
2019-04-07T08:46:45.809Z,42.93
2019-04-07T08:49:15.198Z,47.23
2019-04-07T08:51:44.898Z,44.45
2019-04-07T08:54:17.632Z,44.38
2019-04-07T08:56:45.751Z,46.45
2019-04-07T08:59:17.082Z,36.28
2019-04-07T09:01:47.070Z,42.13
2019-04-07T09:04:17.858Z,48.38
2019-04-07T09:06:48.948Z,42.15
2019-04-07T09:09:30.900Z,41.98
2019-04-07T09:11:53.005Z,40.40
2019-04-07T09:14:22.165Z,45.25
2019-04-07T09:17:09.484Z,42.23
2019-04-07T09:20:16.372Z,45.78
2019-04-07T09:23:08.141Z,43.28
2019-04-07T09:25:59.509Z,43.83
2019-04-07T09:28:48.719Z,50.67
2019-04-07T09:31:37.982Z,41.75
2019-04-07T09:34:29.184Z,46.00
2019-04-07T09:37:25.137Z,53.95
2019-04-07T09:40:09.233Z,50.75
2019-04-07T09:42:57.429Z,53.23
2019-04-07T09:45:42.639Z,50.85
2019-04-07T09:48:34.037Z,55.80
2019-04-07T09:51:12.168Z,55.73
2019-04-07T09:53:53.348Z,54.42
2019-04-07T09:56:50.831Z,53.78
2019-04-07T09:59:46.594Z,51.68
2019-04-07T10:02:31.814Z,53.80
2019-04-07T10:05:06.702Z,56.50
2019-04-07T10:07:54.368Z,54.10
2019-04-07T10:10:41.482Z,64.03
2019-04-07T10:13:41.982Z,65.62
2019-04-07T10:16:32.957Z,52.17
2019-04-07T10:19:15.366Z,57.70
2019-04-07T10:21:55.075Z,55.88
2019-04-07T10:24:58.361Z,55.03
2019-04-07T10:27:58.527Z,53.52
2019-04-07T10:30:58.707Z,53.92
2019-04-07T10:34:02.016Z,48.48
2019-04-07T10:36:49.179Z,51.10
2019-04-07T10:39:41.444Z,53.40
2019-04-07T10:42:21.799Z,49.73
2019-04-07T10:45:06.348Z,51.45
2019-04-07T10:47:48.431Z,48.10
2019-04-07T10:50:35.428Z,49.18
2019-04-07T10:53:14.359Z,50.45
2019-04-07T10:56:02.754Z,49.67
2019-04-07T10:58:54.033Z,47.55
2019-04-07T11:01:48.040Z,46.28
2019-04-07T11:04:39.079Z,48.83
2019-04-07T11:07:23.843Z,49.23
2019-04-07T11:10:14.861Z,47.03
2019-04-07T11:13:03.219Z,47.83
2019-04-07T11:15:57.729Z,44.55
2019-04-07T11:18:46.120Z,44.20
2019-04-07T11:21:34.955Z,44.73
2019-04-07T11:24:31.510Z,46.53
2019-04-07T11:27:35.367Z,45.10
2019-04-07T11:30:22.744Z,43.83
2019-04-07T11:33:08.009Z,43.65
2019-04-07T11:35:45.963Z,43.33
2019-04-07T11:38:46.033Z,42.13
2019-04-07T11:41:27.157Z,44.67
2019-04-07T11:44:19.943Z,41.33
2019-04-07T11:46:56.327Z,41.15
2019-04-07T11:49:37.710Z,40.73
2019-04-07T11:52:12.583Z,41.90
2019-04-07T11:55:13.681Z,41.88
2019-04-07T11:58:06.437Z,43.17
2019-04-07T12:00:39.819Z,42.00
2019-04-07T12:03:28.912Z,41.28
2019-04-07T12:06:21.073Z,38.98
2019-04-07T12:09:13.123Z,43.35
2019-04-07T12:12:07.973Z,42.23
2019-04-07T12:14:59.312Z,42.98
2019-04-07T12:17:46.261Z,51.35
2019-04-07T12:20:28.241Z,40.33
2019-04-07T12:23:23.381Z,39.70
2019-04-07T12:26:14.780Z,38.48
2019-04-07T12:28:53.935Z,40.03
2019-04-07T12:31:46.655Z,39.25
2019-04-07T12:34:38.582Z,36.03
2019-04-07T12:37:29.891Z,39.30
2019-04-07T12:40:33.075Z,36.50
2019-04-07T12:43:19.122Z,39.55
2019-04-07T12:46:01.258Z,36.13
2019-04-07T12:48:43.560Z,37.65
2019-04-07T12:51:28.846Z,35.55
2019-04-07T12:54:09.476Z,38.13
2019-04-07T12:56:58.562Z,34.25
2019-04-07T12:59:49.405Z,38.92
2019-04-07T13:02:36.771Z,36.58
2019-04-07T13:05:35.482Z,37.48
2019-04-07T13:08:24.656Z,37.53
2019-04-07T13:11:27.170Z,34.03
2019-04-07T13:14:09.749Z,42.35
2019-04-07T13:16:56.285Z,49.65
2019-04-07T13:19:50.563Z,54.08
2019-04-07T13:22:57.181Z,42.62
2019-04-07T13:25:43.875Z,44.10
2019-04-07T13:28:47.902Z,50.20
2019-04-07T13:31:36.456Z,47.15
2019-04-07T13:34:33.634Z,58.10
2019-04-07T13:37:20.442Z,51.80
2019-04-07T13:40:10.042Z,54.18
2019-04-07T13:42:44.584Z,66.07
2019-04-07T13:45:33.034Z,69.37
2019-04-07T13:48:11.571Z,77.35
2019-04-07T13:50:57.766Z,84.05
2019-04-07T13:53:48.810Z,82.45
2019-04-07T13:56:37.103Z,75.90
2019-04-07T13:59:45.200Z,79.07
2019-04-07T14:02:30.319Z,99.13
2019-04-07T14:05:11.105Z,102.07
2019-04-07T14:07:55.454Z,97.33
2019-04-07T14:10:50.421Z,88.82
2019-04-07T14:13:42.678Z,96.95
2019-04-07T14:16:29.207Z,80.50
2019-04-07T14:19:07.706Z,85.20
2019-04-07T14:21:56.739Z,94.00
2019-04-07T14:24:37.179Z,87.05
2019-04-07T14:27:24.150Z,94.58
2019-04-07T14:30:22.309Z,77.87
2019-04-07T14:33:09.018Z,84.22
2019-04-07T14:35:50.227Z,77.40
2019-04-07T14:38:40.389Z,84.87
2019-04-07T14:41:36.759Z,85.62
2019-04-07T14:44:15.740Z,78.25
2019-04-07T14:47:14.014Z,85.32
2019-04-07T14:50:09.308Z,82.53
2019-04-07T14:52:54.692Z,74.30
2019-04-07T14:55:49.560Z,73.67
2019-04-07T14:58:38.031Z,65.03
2019-04-07T15:01:29.256Z,55.45
2019-04-07T15:03:58.902Z,62.33
2019-04-07T15:06:30.946Z,61.98
2019-04-07T15:09:22.440Z,59.55
2019-04-07T15:12:20.281Z,62.60
2019-04-07T15:14:45.955Z,57.55
2019-04-07T15:17:15.452Z,59.48
2019-04-07T15:19:44.921Z,51.92
2019-04-07T15:22:15.147Z,58.80
2019-04-07T15:24:45.349Z,52.73
2019-04-07T15:27:15.556Z,50.98
2019-04-07T15:29:46.763Z,52.25
2019-04-07T15:32:17.027Z,50.80
2019-04-07T15:34:46.552Z,45.92
2019-04-07T15:37:21.366Z,48.15
2019-04-07T15:39:50.970Z,49.90
2019-04-07T15:42:33.168Z,47.78
2019-04-07T15:44:52.275Z,51.25
2019-04-07T15:47:22.261Z,48.35
2019-04-07T15:49:52.826Z,49.77
2019-04-07T15:52:22.963Z,46.25
2019-04-07T15:54:53.699Z,47.67
2019-04-07T15:57:24.069Z,53.80
2019-04-07T15:59:54.115Z,40.75
2019-04-07T16:02:23.612Z,47.33
2019-04-07T16:04:53.049Z,43.80
2019-04-07T16:07:23.088Z,48.17
2019-04-07T16:09:56.651Z,48.42
2019-04-07T16:12:24.099Z,44.08
2019-04-07T16:14:54.665Z,41.02
2019-04-07T16:17:24.245Z,41.77
2019-04-07T16:19:55.709Z,40.30
2019-04-07T16:22:25.760Z,38.70
2019-04-07T16:24:56.390Z,42.15
2019-04-07T16:27:27.144Z,40.33
2019-04-07T16:29:56.946Z,39.75
2019-04-07T16:32:28.773Z,39.00
2019-04-07T16:34:58.357Z,36.83
2019-04-07T16:37:29.431Z,35.15
2019-04-07T16:40:03.262Z,37.23
2019-04-07T16:42:31.881Z,40.25
2019-04-07T16:45:03.490Z,53.40
2019-04-07T16:47:35.609Z,41.58
2019-04-07T16:50:06.302Z,41.23
2019-04-07T16:52:37.399Z,38.53
2019-04-07T16:55:09.029Z,34.80
2019-04-07T16:57:38.692Z,39.13
2019-04-07T17:00:10.854Z,39.20
2019-04-07T17:02:41.645Z,33.85
2019-04-07T17:05:14.206Z,35.28
2019-04-07T17:07:47.024Z,34.13
2019-04-07T17:10:16.742Z,39.55
2019-04-07T17:12:46.377Z,30.27
2019-04-07T17:15:15.953Z,34.38
2019-04-07T17:17:46.541Z,28.90
2019-04-07T17:20:17.792Z,31.60
2019-04-07T17:22:48.449Z,34.63
2019-04-07T17:25:18.419Z,27.40
2019-04-07T17:27:47.882Z,26.10
2019-04-07T17:30:18.916Z,28.47
2019-04-07T17:32:50.149Z,31.75
2019-04-07T17:35:20.020Z,29.05
2019-04-07T17:37:49.866Z,30.27
2019-04-07T17:40:21.507Z,27.32
2019-04-07T17:42:53.077Z,27.82
2019-04-07T17:45:54.604Z,24.57
2019-04-07T17:48:53.003Z,24.55
2019-04-07T17:51:37.703Z,24.50
2019-04-07T17:54:36.615Z,26.52
2019-04-07T17:57:25.758Z,25.75
2019-04-07T18:00:18.590Z,24.77
2019-04-07T18:03:09.887Z,21.95
2019-04-07T18:05:51.890Z,21.00
2019-04-07T18:08:29.425Z,25.65
2019-04-07T18:11:17.778Z,23.32
2019-04-07T18:14:06.081Z,26.02
2019-04-07T18:17:13.079Z,28.95
2019-04-07T18:20:05.265Z,22.87
2019-04-07T18:22:51.731Z,25.60
2019-04-07T18:25:39.106Z,25.27
2019-04-07T18:28:31.361Z,23.42
2019-04-07T18:31:18.912Z,23.90
2019-04-07T18:34:06.064Z,24.18
2019-04-07T18:37:06.134Z,23.45
2019-04-07T18:40:01.762Z,23.47
2019-04-07T18:42:52.426Z,21.70
2019-04-07T18:45:48.358Z,21.82
2019-04-07T18:48:32.836Z,22.15
2019-04-07T18:51:23.937Z,23.07
2019-04-07T18:54:09.934Z,24.25
2019-04-07T18:57:04.172Z,21.68
2019-04-07T19:00:01.070Z,22.87
2019-04-07T19:02:46.071Z,28.45
2019-04-07T19:05:23.124Z,19.12
2019-04-07T19:08:19.460Z,22.70
2019-04-07T19:11:24.502Z,19.65
2019-04-07T19:14:34.322Z,20.55
2019-04-07T19:17:10.712Z,20.92
2019-04-07T19:20:05.425Z,22.82
2019-04-07T19:22:54.880Z,19.87
2019-04-07T19:25:47.748Z,20.37
2019-04-07T19:28:29.566Z,20.30
2019-04-07T19:31:17.475Z,19.02
2019-04-07T19:34:13.069Z,17.55
2019-04-07T19:36:59.752Z,20.45
2019-04-07T19:40:00.059Z,19.85
2019-04-07T19:42:41.505Z,19.30
2019-04-07T19:45:31.636Z,18.50
2019-04-07T19:48:19.047Z,17.82
2019-04-07T19:51:16.541Z,18.75
2019-04-07T19:54:05.008Z,18.55
2019-04-07T19:56:52.770Z,18.27
2019-04-07T19:59:50.670Z,17.87
2019-04-07T20:02:36.409Z,21.82
2019-04-07T20:05:41.517Z,17.50
2019-04-07T20:08:34.936Z,20.30
2019-04-07T20:11:28.423Z,18.90
2019-04-07T20:14:16.879Z,18.23
2019-04-07T20:17:04.269Z,17.52
2019-04-07T20:20:02.117Z,17.15
2019-04-07T20:22:47.494Z,19.50
2019-04-07T20:25:47.882Z,18.00
2019-04-07T20:28:40.704Z,18.00
2019-04-07T20:31:21.810Z,16.70
2019-04-07T20:34:15.142Z,17.62
2019-04-07T20:37:03.901Z,17.42
2019-04-07T20:39:49.963Z,16.07
2019-04-07T20:42:48.435Z,17.12
2019-04-07T20:45:49.116Z,17.67
2019-04-07T20:48:25.657Z,15.15
2019-04-07T20:51:02.546Z,17.37
2019-04-07T20:54:05.965Z,17.12
2019-04-07T20:57:07.095Z,20.80
2019-04-07T20:59:56.922Z,14.40
2019-04-07T21:03:17.817Z,16.73
2019-04-07T21:05:58.807Z,17.15
2019-04-07T21:08:36.412Z,15.05
2019-04-07T21:11:24.678Z,15.25
2019-04-07T21:14:22.836Z,15.55
2019-04-07T21:17:09.427Z,15.98
2019-04-07T21:19:51.979Z,16.62
2019-04-07T21:22:37.328Z,15.08
2019-04-07T21:25:24.257Z,15.72
2019-04-07T21:28:12.634Z,14.33
2019-04-07T21:31:15.992Z,15.55
2019-04-07T21:34:17.742Z,17.02
2019-04-07T21:37:17.832Z,16.25
2019-04-07T21:39:53.671Z,16.32
2019-04-07T21:42:36.113Z,15.75
2019-04-07T21:45:28.553Z,14.68
2019-04-07T21:48:06.121Z,15.03
2019-04-07T21:50:48.533Z,13.55
2019-04-07T21:53:43.191Z,16.77
2019-04-07T21:56:30.808Z,14.63
2019-04-07T21:59:18.696Z,13.62
2019-04-07T22:02:19.514Z,14.40
2019-04-07T22:04:57.004Z,16.10
2019-04-07T22:08:03.721Z,15.80
2019-04-07T22:10:31.922Z,13.88
2019-04-07T22:13:04.094Z,13.62
2019-04-07T22:15:43.096Z,15.80
2019-04-07T22:18:07.553Z,16.52
2019-04-07T22:20:34.999Z,13.62
2019-04-07T22:23:08.163Z,14.00
2019-04-07T22:25:44.231Z,13.90
2019-04-07T22:28:13.858Z,14.65
2019-04-07T22:30:44.679Z,14.98
2019-04-07T22:33:14.163Z,14.28
2019-04-07T22:35:44.469Z,14.78
2019-04-07T22:38:15.053Z,13.90
2019-04-07T22:40:44.537Z,14.83
2019-04-07T22:43:16.668Z,15.98
2019-04-07T22:45:55.052Z,15.08
2019-04-07T22:48:16.519Z,13.30
2019-04-07T22:50:45.956Z,14.35
2019-04-07T22:53:15.381Z,12.35
2019-04-07T22:55:44.813Z,14.98
2019-04-07T22:58:14.255Z,13.88
2019-04-07T23:00:44.498Z,14.25
2019-04-07T23:03:14.008Z,12.13
2019-04-07T23:05:43.419Z,12.33
2019-04-07T23:08:12.870Z,14.85
2019-04-07T23:10:42.325Z,13.15
2019-04-07T23:13:11.760Z,12.07
2019-04-07T23:15:45.484Z,13.40
2019-04-07T23:18:12.373Z,13.10
2019-04-07T23:20:41.858Z,12.93
2019-04-07T23:23:11.316Z,13.38
2019-04-07T23:25:40.739Z,15.05
2019-04-07T23:28:10.375Z,14.13
2019-04-07T23:30:39.784Z,12.93
2019-04-07T23:33:09.212Z,13.75
2019-04-07T23:35:39.296Z,11.08
2019-04-07T23:38:08.773Z,13.78
2019-04-07T23:40:38.228Z,18.82
2019-04-07T23:43:07.642Z,13.88
2019-04-07T23:45:37.803Z,13.32
2019-04-07T23:48:08.291Z,12.40
2019-04-07T23:50:37.813Z,13.00
2019-04-07T23:53:42.925Z,29.48
2019-04-07T23:56:12.407Z,11.53
2019-04-07T23:58:41.838Z,12.50
